createdAt,value
2019-03-28T00:01:06.068Z,95941.40
2019-03-28T00:03:36.251Z,95941.88
2019-03-28T00:48:51.687Z,95946.35
2019-03-28T00:51:21.914Z,95946.11
2019-03-28T00:53:52.185Z,95951.20
2019-03-28T00:56:22.416Z,95950.86
2019-03-28T00:58:52.705Z,95946.98
2019-03-28T01:01:22.890Z,95945.13
2019-03-28T01:03:53.114Z,95949.66
2019-03-28T01:06:23.414Z,95947.63
2019-03-28T01:08:53.724Z,95947.45
2019-03-28T01:11:24.060Z,95943.45
2019-03-28T01:13:54.295Z,95944.58
2019-03-28T01:16:24.546Z,95944.88
2019-03-28T01:18:54.744Z,95946.22
2019-03-28T01:21:25.155Z,95943.38
2019-03-28T01:23:55.574Z,95937.00
2019-03-28T01:26:25.800Z,95943.16
2019-03-28T01:28:56.134Z,95944.70
2019-03-28T01:31:26.382Z,95945.22
2019-03-28T01:33:56.601Z,95945.53
2019-03-28T01:36:26.915Z,95942.68
2019-03-28T01:38:57.220Z,95943.50
2019-03-28T01:41:27.371Z,95951.52
2019-03-28T01:43:57.593Z,95951.82
2019-03-28T01:46:27.903Z,95951.13
2019-03-28T01:48:58.412Z,95944.76
2019-03-28T01:51:28.749Z,95949.16
2019-03-28T01:53:59.068Z,95957.50
2019-03-28T01:56:29.330Z,95960.17
2019-03-28T01:58:59.637Z,95960.78
2019-03-28T02:01:30.163Z,95960.78
2019-03-28T02:04:00.408Z,95966.95
2019-03-28T02:06:30.736Z,95967.16
2019-03-28T02:09:01.022Z,95963.16
2019-03-28T02:11:31.161Z,95961.81
2019-03-28T02:14:01.405Z,95961.99
2019-03-28T02:16:31.603Z,95963.45
2019-03-28T02:19:01.914Z,95971.17
2019-03-28T02:21:32.253Z,95968.19
2019-03-28T02:24:02.560Z,95968.19
2019-03-28T02:26:32.628Z,95966.52
2019-03-28T02:29:02.842Z,95970.01
2019-03-28T02:31:33.134Z,95969.19
2019-03-28T02:34:03.458Z,95968.67
2019-03-28T02:36:33.673Z,95970.01
2019-03-28T02:39:04.353Z,95972.20
2019-03-28T02:41:35.001Z,95973.19
2019-03-28T02:44:05.478Z,95959.14
2019-03-28T02:46:35.718Z,95961.17
2019-03-28T02:49:06.072Z,95965.87
2019-03-28T02:51:36.269Z,95971.21
2019-03-28T02:54:06.502Z,95972.68
2019-03-28T02:56:36.889Z,95974.35
2019-03-28T02:59:07.229Z,95971.86
2019-03-28T03:01:37.549Z,95971.55
2019-03-28T03:04:07.895Z,95971.86
2019-03-28T03:06:38.107Z,95975.86
2019-03-28T03:09:10.247Z,95964.88
2019-03-28T03:11:42.822Z,95971.55
2019-03-28T03:14:12.622Z,95973.58
2019-03-28T03:16:42.813Z,95973.41
2019-03-28T03:19:13.019Z,95978.23
2019-03-28T03:21:43.435Z,95982.62
2019-03-28T03:24:13.693Z,95982.92
2019-03-28T03:26:43.911Z,95986.93
2019-03-28T03:29:14.103Z,95989.30
2019-03-28T03:31:44.431Z,95988.48
2019-03-28T03:34:14.750Z,95998.44
2019-03-28T03:36:45.012Z,96000.29
2019-03-28T03:39:15.217Z,96000.80
2019-03-28T03:41:45.445Z,96001.63
2019-03-28T03:44:16.162Z,96007.17
2019-03-28T03:46:46.603Z,96013.00
2019-03-28T03:49:16.805Z,96017.52
2019-03-28T03:51:47.133Z,96014.33
2019-03-28T03:54:17.451Z,96011.66
2019-03-28T03:56:47.657Z,96010.66
2019-03-28T03:59:17.812Z,96019.57
2019-03-28T04:01:48.054Z,96022.04
2019-03-28T04:04:18.341Z,96027.76
2019-03-28T04:06:48.687Z,96028.78
2019-03-28T04:09:18.884Z,96025.60
2019-03-28T04:11:49.080Z,96034.44
2019-03-28T04:14:19.271Z,96030.44
2019-03-28T04:16:49.564Z,96033.75
2019-03-28T04:19:19.986Z,96034.75
2019-03-28T04:21:50.222Z,96045.43
2019-03-28T04:24:21.784Z,96039.61
2019-03-28T04:26:52.639Z,96039.27
2019-03-28T04:29:22.957Z,96040.80
2019-03-28T04:31:53.259Z,96033.92
2019-03-28T04:34:23.593Z,96044.30
2019-03-28T04:36:55.706Z,96047.80
2019-03-28T04:39:25.968Z,96053.45
2019-03-28T04:41:56.211Z,96052.63
2019-03-28T04:44:26.442Z,96055.63
2019-03-28T04:46:56.682Z,96066.49
2019-03-28T04:49:26.899Z,96068.34
2019-03-28T04:51:57.113Z,96073.99
2019-03-28T04:54:27.328Z,96082.97
2019-03-28T04:56:57.555Z,96078.82
2019-03-28T04:59:27.895Z,96075.47
2019-03-28T05:02:02.806Z,96070.81
2019-03-28T05:04:30.338Z,96074.50
2019-03-28T05:07:00.687Z,96077.00
2019-03-28T05:09:31.211Z,96081.01
2019-03-28T05:12:01.583Z,96079.16
2019-03-28T05:14:31.773Z,96079.20
2019-03-28T05:17:02.115Z,96071.02
2019-03-28T05:19:32.317Z,96079.53
2019-03-28T05:22:02.483Z,96071.19
2019-03-28T05:24:32.715Z,96071.15
2019-03-28T05:27:02.864Z,96070.43
2019-03-28T05:29:33.157Z,96070.95
2019-03-28T05:32:03.418Z,96071.66
2019-03-28T05:34:34.352Z,96065.30
2019-03-28T05:37:04.714Z,96066.77
2019-03-28T05:39:35.111Z,96070.70
2019-03-28T05:42:05.438Z,96066.63
2019-03-28T05:44:35.770Z,96068.03
2019-03-28T05:47:06.026Z,96065.08
2019-03-28T05:49:36.235Z,96070.86
2019-03-28T05:52:06.572Z,96072.34
2019-03-28T05:54:36.852Z,96073.83
2019-03-28T05:57:07.073Z,96076.86
2019-03-28T05:59:37.240Z,96077.73
2019-03-28T06:02:07.524Z,96077.53
2019-03-28T06:04:37.775Z,96075.55
2019-03-28T06:07:08.869Z,96077.30
2019-03-28T06:09:40.359Z,96076.27
2019-03-28T06:12:10.764Z,96073.30
2019-03-28T06:14:40.999Z,96071.67
2019-03-28T06:17:11.316Z,96071.28
2019-03-28T06:19:41.642Z,96076.50
2019-03-28T06:22:11.903Z,96071.38
2019-03-28T06:24:42.120Z,96074.27
2019-03-28T06:27:12.419Z,96072.33
2019-03-28T06:29:42.744Z,96077.66
2019-03-28T06:32:13.059Z,96084.98
2019-03-28T06:34:43.216Z,96087.69
2019-03-28T06:37:13.443Z,96091.07
2019-03-28T06:39:43.660Z,96093.45
2019-03-28T06:42:13.969Z,96089.23
2019-03-28T06:44:44.281Z,96093.86
2019-03-28T06:47:14.610Z,96094.02
2019-03-28T06:49:44.852Z,96098.66
2019-03-28T06:52:15.175Z,96105.48
2019-03-28T06:54:45.505Z,96102.51
2019-03-28T06:57:18.672Z,96100.19
2019-03-28T06:59:47.676Z,96101.25
2019-03-28T07:02:17.999Z,96099.81
2019-03-28T07:04:48.236Z,96097.96
2019-03-28T07:07:18.720Z,96100.30
2019-03-28T07:09:48.906Z,96108.20
2019-03-28T07:12:19.200Z,96109.50
2019-03-28T07:14:49.522Z,96107.38
2019-03-28T07:17:19.850Z,96105.53
2019-03-28T07:19:50.095Z,96108.27
2019-03-28T07:22:20.428Z,96110.12
2019-03-28T07:24:50.639Z,96112.31
2019-03-28T07:27:20.881Z,96115.77
2019-03-28T07:29:51.583Z,96120.94
2019-03-28T07:32:21.922Z,96118.89
2019-03-28T07:34:52.334Z,96120.94
2019-03-28T07:37:22.761Z,96119.91
2019-03-28T07:39:53.481Z,96121.33
2019-03-28T07:42:23.807Z,96120.87
2019-03-28T07:44:54.150Z,96118.86
2019-03-28T07:47:24.395Z,96116.13
2019-03-28T07:49:54.614Z,96116.80
2019-03-28T07:52:24.906Z,96114.47
2019-03-28T07:54:55.162Z,96119.03
2019-03-28T07:57:25.455Z,96117.89
2019-03-28T08:00:03.971Z,96115.02
2019-03-28T08:02:27.658Z,96117.14
2019-03-28T08:05:01.264Z,96114.03
2019-03-28T08:07:29.977Z,96120.47
2019-03-28T08:10:00.408Z,96113.82
2019-03-28T08:12:30.795Z,96122.86
2019-03-28T08:15:01.120Z,96119.47
2019-03-28T08:17:31.437Z,96117.52
2019-03-28T08:20:01.606Z,96122.52
2019-03-28T08:22:31.815Z,96127.18
2019-03-28T08:25:02.127Z,96130.23
2019-03-28T08:27:32.538Z,96112.48
2019-03-28T08:30:02.862Z,96123.48
2019-03-28T08:32:33.185Z,96123.23
2019-03-28T08:35:03.457Z,96130.60
2019-03-28T08:37:33.786Z,96122.45
2019-03-28T08:40:04.084Z,96123.84
2019-03-28T08:42:34.307Z,96119.64
2019-03-28T08:45:04.723Z,96122.96
2019-03-28T08:47:35.035Z,96120.32
2019-03-28T08:50:05.688Z,96117.71
2019-03-28T08:52:36.109Z,96124.25
2019-03-28T08:55:09.798Z,96119.11
2019-03-28T08:57:38.416Z,96121.03
2019-03-28T09:00:10.802Z,96122.31
2019-03-28T09:02:41.022Z,96124.58
2019-03-28T09:05:11.332Z,96122.66
2019-03-28T09:07:41.577Z,96116.77
2019-03-28T09:10:11.864Z,96118.58
2019-03-28T09:12:42.194Z,96118.08
2019-03-28T09:15:13.134Z,96113.90
2019-03-28T09:17:43.490Z,96119.17
2019-03-28T09:20:13.881Z,96119.94
2019-03-28T09:22:44.211Z,96113.63
2019-03-28T09:25:14.449Z,96115.14
2019-03-28T09:27:44.673Z,96116.09
2019-03-28T09:30:18.708Z,96103.32
2019-03-28T09:32:49.021Z,96106.75
2019-03-28T09:35:29.657Z,96109.11
2019-03-28T09:37:59.984Z,96110.27
2019-03-28T09:40:30.307Z,96108.86
2019-03-28T09:43:00.639Z,96099.58
2019-03-28T09:45:30.874Z,96101.39
2019-03-28T09:48:01.105Z,96099.81
2019-03-28T09:50:31.325Z,96099.12
2019-03-28T09:53:01.780Z,96093.77
2019-03-28T09:55:32.152Z,96100.08
2019-03-28T09:58:02.636Z,96093.39
2019-03-28T10:00:33.959Z,96094.68
2019-03-28T10:03:05.263Z,96092.48
2019-03-28T10:05:37.980Z,96097.36
2019-03-28T10:08:07.484Z,96089.91
2019-03-28T10:10:37.905Z,96094.66
2019-03-28T10:13:08.386Z,96092.70
2019-03-28T10:15:38.517Z,96091.50
2019-03-28T10:18:08.836Z,96091.34
2019-03-28T10:20:38.963Z,96083.66
2019-03-28T10:23:09.217Z,96080.59
2019-03-28T10:25:39.318Z,96082.31
2019-03-28T10:28:09.477Z,96079.90
2019-03-28T10:30:40.840Z,96076.58
2019-03-28T10:33:11.078Z,96070.97
2019-03-28T10:35:41.282Z,96065.31
2019-03-28T10:38:11.512Z,96070.84
2019-03-28T10:40:41.664Z,96060.15
2019-03-28T10:43:12.006Z,96051.13
2019-03-28T10:45:42.169Z,96048.11
2019-03-28T10:48:12.598Z,96048.75
2019-03-28T10:50:45.762Z,96045.65
2019-03-28T10:53:14.686Z,96040.69
2019-03-28T10:55:44.841Z,96033.15
2019-03-28T10:58:18.633Z,96032.33
2019-03-28T11:00:47.163Z,96038.63
2019-03-28T11:03:17.425Z,96031.94
2019-03-28T11:05:47.636Z,96032.58
2019-03-28T11:08:17.969Z,96029.27
2019-03-28T11:10:48.259Z,96026.20
2019-03-28T11:13:18.607Z,96020.16
2019-03-28T11:15:49.018Z,96022.66
2019-03-28T11:18:19.293Z,96016.09
2019-03-28T11:20:49.579Z,96011.10
2019-03-28T11:23:19.809Z,96009.41
2019-03-28T11:25:50.152Z,96010.28
2019-03-28T11:28:23.298Z,95998.06
2019-03-28T11:30:52.602Z,96011.05
2019-03-28T11:33:22.949Z,95997.67
2019-03-28T11:35:53.286Z,95999.13
2019-03-28T11:38:23.540Z,95992.97
2019-03-28T11:40:53.845Z,95989.26
2019-03-28T11:43:24.207Z,95981.88
2019-03-28T11:45:54.479Z,95987.83
2019-03-28T11:48:24.885Z,95983.39
2019-03-28T11:50:55.239Z,95977.92
2019-03-28T11:53:25.475Z,95979.08
2019-03-28T11:55:55.686Z,95972.69
2019-03-28T11:58:26.020Z,95969.11
2019-03-28T12:00:56.301Z,95969.50
2019-03-28T12:03:26.630Z,95965.82
2019-03-28T12:05:56.876Z,95961.48
2019-03-28T12:08:27.217Z,95967.03
2019-03-28T12:10:57.529Z,95964.36
2019-03-28T12:13:27.867Z,95968.37
2019-03-28T12:15:58.048Z,95963.54
2019-03-28T12:18:28.297Z,95962.59
2019-03-28T12:20:58.533Z,95964.63
2019-03-28T12:23:28.763Z,95957.55
2019-03-28T12:25:59.041Z,95960.95
2019-03-28T12:28:29.377Z,95953.14
2019-03-28T12:30:59.620Z,95951.11
2019-03-28T12:33:29.861Z,95951.84
2019-03-28T12:36:00.054Z,95945.42
2019-03-28T12:38:30.435Z,95939.47
2019-03-28T12:41:00.687Z,95931.75
2019-03-28T12:43:31.030Z,95927.92
2019-03-28T12:46:01.377Z,95920.02
2019-03-28T12:48:31.614Z,95920.22
2019-03-28T12:51:01.820Z,95924.03
2019-03-28T12:53:32.104Z,95920.66
2019-03-28T12:56:02.535Z,95915.30
2019-03-28T12:58:32.959Z,95908.09
2019-03-28T13:01:03.221Z,95904.33
2019-03-28T13:03:44.863Z,95912.23
2019-03-28T13:06:05.608Z,95911.29
2019-03-28T13:08:35.947Z,95906.76
2019-03-28T13:11:06.161Z,95902.96
2019-03-28T13:13:36.556Z,95881.95
2019-03-28T13:16:07.001Z,95877.33
2019-03-28T13:18:37.396Z,95879.49
2019-03-28T13:21:13.438Z,95879.83
2019-03-28T13:23:39.591Z,95877.67
2019-03-28T13:26:09.931Z,95876.42
2019-03-28T13:28:40.252Z,95876.94
2019-03-28T13:31:10.604Z,95876.54
2019-03-28T13:33:40.813Z,95869.66
2019-03-28T13:36:11.056Z,95866.88
2019-03-28T13:38:41.444Z,95859.15
2019-03-28T13:41:11.788Z,95860.94
2019-03-28T13:43:49.058Z,95861.42
2019-03-28T13:46:19.323Z,95852.06
2019-03-28T13:48:49.721Z,95852.91
2019-03-28T13:51:20.085Z,95852.58
2019-03-28T13:53:52.118Z,95861.13
2019-03-28T13:56:22.301Z,95858.75
2019-03-28T13:58:52.634Z,95855.89
2019-03-28T14:01:22.830Z,95856.19
2019-03-28T14:03:53.136Z,95858.80
2019-03-28T14:06:23.439Z,95856.92
2019-03-28T14:08:53.685Z,95853.09
2019-03-28T14:11:23.883Z,95853.91
2019-03-28T14:13:54.235Z,95856.92
2019-03-28T14:16:24.438Z,95851.64
2019-03-28T14:18:54.769Z,95849.38
2019-03-28T14:21:25.067Z,95856.59
2019-03-28T14:23:55.327Z,95850.42
2019-03-28T14:26:25.647Z,95856.59
2019-03-28T14:28:55.855Z,95843.61
2019-03-28T14:31:26.168Z,95855.35
2019-03-28T14:33:56.497Z,95851.34
2019-03-28T14:36:26.837Z,95850.41
2019-03-28T14:38:57.080Z,95849.67
2019-03-28T14:41:27.386Z,95851.92
2019-03-28T14:43:57.716Z,95848.42
2019-03-28T14:46:27.832Z,95841.08
2019-03-28T14:48:58.229Z,95829.96
2019-03-28T14:51:28.558Z,95827.29
2019-03-28T14:53:58.893Z,95825.31
2019-03-28T14:56:29.035Z,95822.00
2019-03-28T14:58:59.249Z,95827.59
2019-03-28T15:01:29.496Z,95824.92
2019-03-28T15:03:59.796Z,95827.70
2019-03-28T15:06:30.100Z,95827.29
2019-03-28T15:09:00.454Z,95833.76
2019-03-28T15:11:30.693Z,95829.63
2019-03-28T15:14:00.921Z,95826.84
2019-03-28T15:16:31.296Z,95828.09
2019-03-28T15:19:01.633Z,95870.96
2019-03-28T15:21:33.323Z,95869.05
2019-03-28T15:24:03.560Z,95869.63
2019-03-28T15:26:33.771Z,95867.47
2019-03-28T15:31:33.045Z,95863.67
2019-03-28T15:34:03.385Z,95861.52
2019-03-28T15:36:33.803Z,95870.02
2019-03-28T15:39:05.607Z,95867.22
2019-03-28T15:41:35.908Z,95880.23
2019-03-28T15:44:06.169Z,95874.27
2019-03-28T15:46:36.429Z,95877.04
2019-03-28T15:49:06.657Z,95881.93
2019-03-28T15:51:37.636Z,95877.83
2019-03-28T15:54:08.018Z,95879.05
2019-03-28T15:56:38.350Z,95886.03
2019-03-28T15:59:08.668Z,95888.53
2019-03-28T16:01:38.832Z,95889.12
2019-03-28T16:04:09.022Z,95881.05
2019-03-28T16:06:39.264Z,95893.77
2019-03-28T16:09:09.668Z,95890.06
2019-03-28T16:11:39.996Z,95885.33
2019-03-28T16:14:10.324Z,95892.58
2019-03-28T16:16:40.567Z,95888.78
2019-03-28T16:19:10.776Z,95896.72
2019-03-28T16:21:41.062Z,95894.73
2019-03-28T16:24:11.314Z,95895.34
2019-03-28T16:26:41.636Z,95885.47
2019-03-28T16:29:11.925Z,95888.32
2019-03-28T16:31:42.105Z,95894.88
2019-03-28T16:34:12.565Z,95889.05
2019-03-28T16:36:42.864Z,95887.80
2019-03-28T16:39:13.167Z,95893.08
2019-03-28T16:41:43.499Z,95889.07
2019-03-28T16:44:13.816Z,95897.38
2019-03-28T16:46:44.066Z,95897.89
2019-03-28T16:49:14.300Z,95899.22
2019-03-28T16:51:44.508Z,95899.22
2019-03-28T16:54:14.812Z,95900.91
2019-03-28T16:56:45.132Z,95902.51
2019-03-28T16:59:15.291Z,95897.89
2019-03-28T17:01:45.498Z,95908.24
2019-03-28T17:04:21.160Z,95903.83
2019-03-28T17:06:48.019Z,95909.85
2019-03-28T17:09:18.294Z,95909.55
2019-03-28T17:11:49.759Z,95915.67
2019-03-28T17:14:20.104Z,95914.52
2019-03-28T17:16:50.343Z,95912.45
2019-03-28T17:19:20.549Z,95922.50
2019-03-28T17:21:50.841Z,95922.89
2019-03-28T17:24:22.202Z,95923.53
2019-03-28T17:26:52.438Z,95924.74
2019-03-28T17:29:22.719Z,95935.56
2019-03-28T17:31:52.961Z,95936.38
2019-03-28T17:34:34.052Z,95942.55
2019-03-28T17:36:55.526Z,95942.42
2019-03-28T17:39:25.752Z,95947.77
2019-03-28T17:41:55.944Z,95940.14
2019-03-28T17:44:26.260Z,95947.95
2019-03-28T17:46:56.596Z,95946.82
2019-03-28T17:49:26.872Z,95948.28
2019-03-28T17:51:57.107Z,95952.81
2019-03-28T17:54:27.464Z,95951.13
2019-03-28T17:56:57.689Z,95958.64
2019-03-28T17:59:27.910Z,95958.02
2019-03-28T18:01:58.256Z,95966.30
2019-03-28T18:04:28.524Z,95963.24
2019-03-28T18:06:58.987Z,95963.98
2019-03-28T18:09:29.468Z,95972.39
2019-03-28T18:11:59.446Z,95966.17
2019-03-28T18:14:29.650Z,95970.31
2019-03-28T18:17:00.094Z,95979.97
2019-03-28T18:19:30.635Z,95987.52
2019-03-28T18:22:03.813Z,95986.35
2019-03-28T18:24:33.082Z,95987.04
2019-03-28T18:27:03.433Z,95984.75
2019-03-28T18:29:35.923Z,95983.80
2019-03-28T18:32:05.592Z,95984.41
2019-03-28T18:34:35.851Z,95985.70
2019-03-28T18:37:06.269Z,95984.93
2019-03-28T18:39:36.494Z,95984.41
2019-03-28T18:42:06.891Z,95986.48
2019-03-28T18:44:37.216Z,95986.63
2019-03-28T18:47:07.636Z,95987.42
2019-03-28T18:49:38.073Z,95987.22
2019-03-28T18:52:08.162Z,95991.56
2019-03-28T18:54:38.360Z,95994.37
2019-03-28T18:57:08.636Z,96000.41
2019-03-28T18:59:39.080Z,95995.31
2019-03-28T19:02:09.507Z,95999.72
2019-03-28T19:04:39.835Z,96004.55
2019-03-28T19:07:10.217Z,96008.17
2019-03-28T19:09:40.407Z,96003.77
2019-03-28T19:12:10.716Z,96003.08
2019-03-28T19:14:40.949Z,96008.81
2019-03-28T19:17:11.231Z,96009.50
2019-03-28T19:19:41.559Z,96019.50
2019-03-28T19:22:11.994Z,96012.82
2019-03-28T19:24:42.787Z,96010.84
2019-03-28T19:27:13.258Z,96013.26
2019-03-28T19:29:43.692Z,96015.49
2019-03-28T19:32:13.946Z,96011.66
2019-03-28T19:34:44.061Z,96021.92
2019-03-28T19:37:14.313Z,96014.04
2019-03-28T19:39:44.579Z,96014.94
2019-03-28T19:42:14.914Z,96012.27
2019-03-28T19:44:45.527Z,96012.95
2019-03-28T19:47:15.951Z,96017.44
2019-03-28T19:49:46.397Z,96014.03
2019-03-28T19:52:16.633Z,96015.03
2019-03-28T19:54:46.968Z,96019.30
2019-03-28T19:57:17.312Z,96026.05
2019-03-28T19:59:47.517Z,96023.70
2019-03-28T20:02:17.811Z,96024.38
2019-03-28T20:04:48.134Z,96024.72
2019-03-28T20:07:21.840Z,96031.59
2019-03-28T20:09:50.281Z,96030.89
2019-03-28T20:12:20.516Z,96023.36
2019-03-28T20:14:50.774Z,96021.06
2019-03-28T20:17:21.087Z,96026.29
2019-03-28T20:19:51.537Z,96033.56
2019-03-28T20:22:21.848Z,96021.72
2019-03-28T20:24:52.110Z,96027.50
2019-03-28T20:27:22.964Z,96015.98
2019-03-28T20:29:53.347Z,96021.45
2019-03-28T20:32:23.580Z,96021.63
2019-03-28T20:34:53.912Z,96019.81
2019-03-28T20:37:24.570Z,96019.98
2019-03-28T20:39:54.765Z,96021.16
2019-03-28T20:42:25.063Z,96028.53
2019-03-28T20:44:55.394Z,96025.85
2019-03-28T20:47:25.716Z,96020.68
2019-03-28T20:49:56.081Z,96019.42
2019-03-28T20:52:26.285Z,96021.16
2019-03-28T20:54:56.397Z,96022.09
2019-03-28T20:57:26.702Z,96020.38
2019-03-28T20:59:57.135Z,96025.08
2019-03-28T21:02:27.871Z,96019.94
2019-03-28T21:04:58.098Z,96033.10
2019-03-28T21:07:28.352Z,96032.28
2019-03-28T21:09:58.593Z,96035.13
2019-03-28T21:12:28.787Z,96034.00
2019-03-28T21:14:59.090Z,96041.43
2019-03-28T21:17:32.009Z,96034.52
2019-03-28T21:20:01.497Z,96036.16
2019-03-28T21:22:31.909Z,96041.90
2019-03-28T21:25:02.236Z,96049.27
2019-03-28T21:27:33.091Z,96045.78
2019-03-28T21:30:03.699Z,96048.45
2019-03-28T21:32:34.120Z,96054.31
2019-03-28T21:35:04.449Z,96056.98
2019-03-28T21:37:34.710Z,96057.98
2019-03-28T21:40:05.032Z,96047.11
2019-03-28T21:42:35.271Z,96057.94
2019-03-28T21:45:05.644Z,96055.00
2019-03-28T21:47:35.997Z,96056.65
2019-03-28T21:50:06.385Z,96048.84
2019-03-28T21:52:36.561Z,96044.31
2019-03-28T21:55:07.047Z,96049.48
2019-03-28T21:57:38.240Z,96049.66
2019-03-28T22:00:08.761Z,96050.99
2019-03-28T22:02:39.063Z,96053.36
2019-03-28T22:05:09.378Z,96057.98
2019-03-28T22:07:40.390Z,96058.71
2019-03-28T22:10:11.796Z,96051.89
2019-03-28T22:12:42.037Z,96053.16
2019-03-28T22:15:12.319Z,96057.98
2019-03-28T22:17:42.657Z,96050.34
2019-03-28T22:20:12.959Z,96055.70
2019-03-28T22:22:43.612Z,96061.05
2019-03-28T22:25:14.024Z,96065.91
2019-03-28T22:27:47.271Z,96071.43
2019-03-28T22:30:16.254Z,96071.95
2019-03-28T22:32:46.568Z,96075.27
2019-03-28T22:35:16.788Z,96075.95
2019-03-28T22:37:47.129Z,96074.10
2019-03-28T22:40:17.506Z,96077.81
2019-03-28T22:42:47.902Z,96080.52
2019-03-28T22:45:18.366Z,96079.52
2019-03-28T22:47:48.521Z,96077.09
2019-03-28T22:50:18.757Z,96075.57
2019-03-28T22:52:48.990Z,96077.81
2019-03-28T22:55:19.371Z,96074.48
2019-03-28T22:57:49.704Z,96078.50
2019-03-28T23:00:21.202Z,96083.02
2019-03-28T23:02:51.446Z,96087.20
2019-03-28T23:05:21.622Z,96080.39
2019-03-28T23:07:51.911Z,96085.05
2019-03-28T23:10:22.347Z,96087.07
2019-03-28T23:12:52.764Z,96081.86
2019-03-28T23:15:23.046Z,96080.08
2019-03-28T23:17:53.366Z,96085.13
2019-03-28T23:20:23.945Z,96087.28
2019-03-28T23:22:54.406Z,96087.07
2019-03-28T23:25:24.753Z,96089.75
2019-03-28T23:27:55.062Z,96092.77
2019-03-28T23:30:25.423Z,96091.22
2019-03-28T23:32:55.505Z,96086.90
2019-03-28T23:35:25.843Z,96091.94
2019-03-28T23:37:55.959Z,96093.27
2019-03-28T23:40:26.617Z,96092.25
2019-03-28T23:42:56.997Z,96087.72
2019-03-28T23:45:27.316Z,96093.27
2019-03-28T23:47:57.658Z,96087.03
2019-03-28T23:50:27.890Z,96094.27
2019-03-28T23:52:58.113Z,96094.09
2019-03-28T23:55:28.331Z,96095.95
2019-03-28T23:57:58.631Z,96099.44
